createdAt,value
2024-02-21T00:01:05.797Z,11.20
2024-02-21T00:03:50.223Z,10.40
2024-02-21T00:06:22.856Z,11.50
2024-02-21T00:08:55.402Z,10.70
2024-02-21T00:11:27.860Z,10.10
2024-02-21T00:14:01.096Z,10.50
2024-02-21T00:16:33.640Z,10.30
2024-02-21T00:19:06.376Z,9.50
2024-02-21T00:21:38.843Z,10.40
2024-02-21T00:24:11.742Z,9.60
2024-02-21T00:26:44.654Z,9.90
2024-02-21T00:29:17.188Z,9.90
2024-02-21T00:31:50.840Z,9.80
2024-02-21T00:34:23.665Z,9.20
2024-02-21T00:36:56.242Z,9.60
2024-02-21T00:39:28.721Z,9.40
2024-02-21T00:42:04.211Z,9.70
2024-02-21T00:44:36.785Z,9.70
2024-02-21T00:47:09.925Z,9.30
2024-02-21T00:49:42.538Z,10.10
2024-02-21T00:52:14.972Z,10.00
2024-02-21T00:54:53.535Z,9.80
2024-02-21T00:57:27.119Z,10.10
2024-02-21T00:59:59.926Z,9.60
2024-02-21T01:02:33.749Z,10.30
2024-02-21T01:05:06.922Z,10.00
2024-02-21T01:07:39.287Z,10.60
2024-02-21T01:10:13.150Z,9.50
2024-02-21T01:12:45.998Z,10.90
2024-02-21T01:15:18.725Z,10.80
2024-02-21T01:17:56.204Z,10.90
2024-02-21T01:20:29.070Z,10.20
2024-02-21T01:23:02.132Z,10.00
2024-02-21T01:25:34.777Z,10.30
2024-02-21T01:28:07.952Z,10.50
2024-02-21T01:30:40.490Z,11.50
2024-02-21T01:33:13.086Z,10.00
2024-02-21T01:35:45.915Z,11.20
2024-02-21T01:38:18.832Z,10.60
2024-02-21T01:40:51.515Z,10.10
2024-02-21T01:43:35.229Z,10.00
2024-02-21T01:46:09.089Z,11.00
2024-02-21T01:48:41.997Z,10.40
2024-02-21T01:51:14.857Z,10.90
2024-02-21T01:53:48.894Z,11.00
2024-02-21T01:56:22.067Z,10.00
2024-02-21T01:58:55.185Z,9.80
2024-02-21T02:01:27.761Z,9.50
2024-02-21T02:04:01.711Z,10.10
2024-02-21T02:06:34.791Z,10.10
2024-02-21T02:09:07.409Z,9.80
2024-02-21T02:11:39.844Z,9.50
2024-02-21T02:14:12.457Z,9.50
2024-02-21T02:16:48.059Z,8.80
2024-02-21T02:19:20.674Z,9.80
2024-02-21T02:22:02.332Z,9.00
2024-02-21T02:24:34.758Z,8.70
2024-02-21T02:27:07.465Z,8.90
2024-02-21T02:29:39.978Z,9.20
2024-02-21T02:32:12.584Z,8.50
2024-02-21T02:34:45.001Z,8.30
2024-02-21T02:37:17.768Z,8.40
2024-02-21T02:39:50.731Z,7.80
2024-02-21T02:42:23.399Z,7.80
2024-02-21T02:44:55.789Z,8.20
2024-02-21T02:47:28.199Z,7.60
2024-02-21T02:50:00.591Z,6.80
2024-02-21T02:52:33.906Z,6.80
2024-02-21T02:55:09.010Z,7.90
2024-02-21T02:57:43.183Z,7.40
2024-02-21T03:00:19.349Z,7.50
2024-02-21T03:02:53.064Z,7.90
2024-02-21T03:05:25.842Z,7.10
2024-02-21T03:08:00.327Z,7.50
2024-02-21T03:10:33.276Z,7.40
2024-02-21T03:13:06.459Z,6.90
2024-02-21T03:15:39.683Z,6.80
2024-02-21T03:18:12.220Z,7.40
2024-02-21T03:20:45.022Z,6.80
2024-02-21T03:23:17.782Z,6.90
2024-02-21T03:25:50.593Z,6.90
2024-02-21T03:28:23.164Z,6.00
2024-02-21T03:30:55.693Z,7.10
2024-02-21T03:33:28.273Z,7.10
2024-02-21T03:36:00.757Z,6.60
2024-02-21T03:38:33.327Z,6.90
2024-02-21T03:41:06.237Z,6.30
2024-02-21T03:43:39.600Z,6.60
2024-02-21T03:46:12.281Z,6.70
2024-02-21T03:48:44.683Z,7.50
2024-02-21T03:51:17.019Z,7.10
2024-02-21T03:53:49.109Z,6.50
2024-02-21T03:56:21.447Z,6.30
2024-02-21T03:58:53.886Z,6.20
2024-02-21T04:01:26.220Z,6.20
2024-02-21T04:03:58.753Z,7.10
2024-02-21T04:06:30.976Z,6.90
2024-02-21T04:09:03.257Z,7.60
2024-02-21T04:11:35.604Z,6.60
2024-02-21T04:14:08.393Z,6.60
2024-02-21T04:16:41.448Z,6.60
2024-02-21T04:19:13.836Z,7.40
2024-02-21T04:21:46.020Z,8.40
2024-02-21T04:24:18.373Z,7.60
2024-02-21T04:26:50.600Z,8.20
2024-02-21T04:29:23.039Z,9.00
2024-02-21T04:31:55.336Z,8.10
2024-02-21T04:34:27.991Z,9.50
2024-02-21T04:37:00.294Z,9.00
2024-02-21T04:39:32.489Z,9.30
2024-02-21T04:42:04.761Z,10.00
2024-02-21T04:44:36.947Z,9.90
2024-02-21T04:47:09.480Z,9.90
2024-02-21T04:49:42.358Z,8.80
2024-02-21T04:52:17.147Z,9.40
2024-02-21T04:54:50.053Z,8.90
2024-02-21T04:57:22.294Z,9.40
2024-02-21T04:59:54.544Z,10.10
2024-02-21T05:02:27.819Z,11.90
2024-02-21T05:05:00.214Z,11.20
2024-02-21T05:07:32.625Z,11.00
2024-02-21T05:10:05.497Z,8.70
2024-02-21T05:12:37.753Z,8.20
2024-02-21T05:15:11.359Z,7.30
2024-02-21T05:17:44.295Z,7.20
2024-02-21T05:20:16.938Z,7.00
2024-02-21T05:22:49.220Z,7.10
2024-02-21T05:25:21.560Z,6.90
2024-02-21T05:27:56.908Z,6.90
2024-02-21T05:30:29.168Z,6.50
2024-02-21T05:33:01.466Z,6.80
2024-02-21T05:35:33.852Z,6.50
2024-02-21T05:38:12.920Z,9.30
2024-02-21T05:40:46.644Z,7.50
2024-02-21T05:43:18.779Z,8.00
2024-02-21T05:45:51.038Z,8.80
2024-02-21T05:48:24.488Z,9.30
2024-02-21T05:50:56.823Z,10.90
2024-02-21T05:53:28.878Z,10.50
2024-02-21T05:56:01.110Z,10.00
2024-02-21T05:58:35.782Z,8.90
2024-02-21T06:01:08.288Z,10.20
2024-02-21T06:03:40.442Z,13.10
2024-02-21T06:06:12.705Z,10.90
2024-02-21T06:08:44.913Z,10.20
2024-02-21T06:11:17.606Z,9.50
2024-02-21T06:13:49.899Z,10.20
2024-02-21T06:16:22.333Z,8.80
2024-02-21T06:18:54.628Z,9.20
2024-02-21T06:21:31.154Z,8.80
2024-02-21T06:24:03.584Z,9.40
2024-02-21T06:26:35.854Z,9.40
2024-02-21T06:29:08.219Z,9.10
2024-02-21T06:31:40.450Z,8.40
2024-02-21T06:34:12.758Z,8.30
2024-02-21T06:36:45.076Z,8.20
2024-02-21T06:39:17.234Z,9.10
2024-02-21T06:41:51.628Z,7.70
2024-02-21T06:44:25.190Z,8.20
2024-02-21T06:46:57.490Z,8.60
2024-02-21T06:49:29.799Z,8.30
2024-02-21T06:52:02.405Z,8.80
2024-02-21T06:54:34.715Z,9.50
2024-02-21T06:57:07.369Z,9.80
2024-02-21T06:59:39.568Z,9.50
2024-02-21T07:02:12.066Z,9.50
2024-02-21T07:04:44.969Z,9.00
2024-02-21T07:07:17.340Z,9.70
2024-02-21T07:09:49.967Z,10.20
2024-02-21T07:12:22.270Z,9.90
2024-02-21T07:14:57.318Z,9.70
2024-02-21T07:17:29.486Z,9.80
2024-02-21T07:20:02.806Z,9.90
2024-02-21T07:22:35.124Z,9.60
2024-02-21T07:25:08.715Z,9.60
2024-02-21T07:27:41.055Z,10.10
2024-02-21T07:30:17.415Z,10.10
2024-02-21T07:32:55.186Z,10.40
2024-02-21T07:35:27.351Z,10.60
2024-02-21T07:37:59.566Z,10.60
2024-02-21T07:40:31.788Z,10.60
2024-02-21T07:43:06.325Z,10.20
2024-02-21T07:45:40.438Z,11.00
2024-02-21T07:48:12.883Z,10.60
2024-02-21T07:50:45.279Z,10.20
2024-02-21T07:53:19.109Z,11.60
2024-02-21T07:55:51.332Z,11.20
2024-02-21T07:58:23.605Z,10.60
2024-02-21T08:00:55.904Z,10.70
2024-02-21T08:03:30.833Z,10.10
2024-02-21T08:06:03.613Z,9.40
2024-02-21T08:08:35.803Z,8.90
2024-02-21T08:11:08.743Z,9.20
2024-02-21T08:13:41.393Z,9.50
2024-02-21T08:16:13.689Z,8.70
2024-02-21T08:18:47.728Z,8.20
2024-02-21T08:21:19.880Z,8.30
2024-02-21T08:23:52.883Z,7.80
2024-02-21T08:26:25.222Z,7.70
2024-02-21T08:28:59.993Z,7.40
2024-02-21T08:31:33.345Z,7.20
2024-02-21T08:34:05.976Z,7.40
2024-02-21T08:36:38.779Z,7.10
2024-02-21T08:39:12.289Z,7.50
2024-02-21T08:41:52.546Z,7.70
2024-02-21T08:44:33.305Z,7.90
2024-02-21T08:47:25.628Z,7.20
2024-02-21T08:49:58.474Z,7.60
2024-02-21T08:52:40.521Z,7.70
2024-02-21T08:55:27.162Z,7.30
2024-02-21T08:58:10.462Z,6.60
2024-02-21T09:00:43.264Z,6.40
2024-02-21T09:03:16.174Z,24.00
2024-02-21T09:05:57.810Z,13.00
2024-02-21T09:08:30.662Z,7.30
2024-02-21T09:11:23.346Z,6.70
2024-02-21T09:13:55.786Z,5.90
2024-02-21T09:16:37.495Z,6.10
2024-02-21T09:19:22.998Z,6.20
2024-02-21T09:21:55.553Z,6.40
2024-02-21T09:24:27.838Z,5.10
2024-02-21T09:27:00.840Z,5.30
2024-02-21T09:29:35.664Z,4.50
2024-02-21T09:32:10.824Z,5.20
2024-02-21T09:34:43.974Z,5.50
2024-02-21T09:37:19.099Z,4.80
2024-02-21T09:40:01.602Z,4.90
2024-02-21T09:43:04.161Z,5.40
2024-02-21T09:45:36.975Z,5.30
2024-02-21T09:48:24.600Z,4.10
2024-02-21T09:50:58.506Z,4.60
2024-02-21T09:53:32.933Z,4.20
2024-02-21T09:56:06.441Z,3.90
2024-02-21T09:58:39.016Z,4.00
2024-02-21T10:01:17.214Z,4.10
2024-02-21T10:03:59.181Z,4.30
2024-02-21T10:06:31.884Z,3.70
2024-02-21T10:09:04.261Z,3.70
2024-02-21T10:11:37.916Z,4.30
2024-02-21T10:14:10.851Z,3.80
2024-02-21T10:16:43.520Z,4.20
2024-02-21T10:19:22.076Z,4.40
2024-02-21T10:22:09.211Z,4.30
2024-02-21T10:24:42.746Z,4.50
2024-02-21T10:27:15.178Z,4.50
2024-02-21T10:29:53.495Z,4.40
2024-02-21T10:32:27.893Z,4.30
2024-02-21T10:35:07.188Z,4.60
2024-02-21T10:37:39.449Z,4.70
2024-02-21T10:40:13.507Z,4.30
2024-02-21T10:42:46.344Z,4.60
2024-02-21T10:45:19.986Z,6.60
2024-02-21T10:47:58.140Z,3.90
2024-02-21T10:50:34.469Z,4.10
2024-02-21T10:53:27.217Z,3.50
2024-02-21T10:56:11.513Z,3.30
2024-02-21T10:58:46.462Z,3.10
2024-02-21T11:01:19.633Z,3.60
2024-02-21T11:03:55.821Z,3.70
2024-02-21T11:06:30.202Z,3.00
2024-02-21T11:09:06.987Z,3.40
2024-02-21T11:11:41.508Z,3.30
2024-02-21T11:14:20.703Z,3.70
2024-02-21T11:16:52.860Z,4.20
2024-02-21T11:19:25.978Z,4.20
2024-02-21T11:22:02.572Z,3.30
2024-02-21T11:24:38.990Z,3.30
2024-02-21T11:27:16.182Z,3.90
2024-02-21T11:29:50.157Z,3.90
2024-02-21T11:32:23.426Z,3.90
2024-02-21T11:35:03.308Z,3.70
2024-02-21T11:37:38.595Z,3.60
2024-02-21T11:40:13.102Z,3.30
2024-02-21T11:42:46.127Z,3.50
2024-02-21T11:45:21.653Z,3.60
2024-02-21T11:47:54.311Z,3.80
2024-02-21T11:50:26.813Z,5.30
2024-02-21T11:52:59.775Z,4.60
2024-02-21T11:55:32.074Z,4.00
2024-02-21T11:58:04.414Z,3.90
2024-02-21T12:00:37.004Z,4.10
2024-02-21T12:03:10.061Z,3.40
2024-02-21T12:05:45.353Z,4.40
2024-02-21T12:08:17.645Z,3.80
2024-02-21T12:10:52.738Z,4.30
2024-02-21T12:13:27.941Z,5.30
2024-02-21T12:16:00.229Z,11.00
2024-02-21T12:18:32.530Z,5.10
2024-02-21T12:21:04.768Z,6.50
2024-02-21T12:23:37.025Z,5.60
2024-02-21T12:26:09.790Z,3.90
2024-02-21T12:28:42.048Z,4.00
2024-02-21T12:31:14.429Z,4.10
2024-02-21T12:33:46.950Z,3.80
2024-02-21T12:36:19.175Z,4.30
2024-02-21T12:38:51.313Z,4.20
2024-02-21T12:41:23.550Z,3.70
2024-02-21T12:43:55.804Z,3.50
2024-02-21T12:46:27.986Z,4.20
2024-02-21T12:49:00.209Z,3.70
2024-02-21T12:51:32.913Z,3.30
2024-02-21T12:54:05.338Z,4.00
2024-02-21T12:56:37.640Z,4.30
2024-02-21T12:59:10.619Z,4.50
2024-02-21T13:01:43.092Z,3.50
2024-02-21T13:04:15.727Z,3.90
2024-02-21T13:06:47.972Z,3.60
2024-02-21T13:09:21.163Z,3.50
2024-02-21T13:11:54.020Z,3.40
2024-02-21T13:14:26.558Z,3.20
2024-02-21T13:16:58.778Z,3.50
2024-02-21T13:19:31.186Z,2.70
2024-02-21T13:22:04.081Z,2.50
2024-02-21T13:24:36.385Z,2.60
2024-02-21T13:27:08.780Z,2.70
2024-02-21T13:29:41.784Z,2.80
2024-02-21T13:32:14.055Z,3.10
2024-02-21T13:34:46.578Z,3.10
2024-02-21T13:37:19.341Z,3.50
2024-02-21T13:39:51.572Z,2.80
2024-02-21T13:42:25.055Z,2.90
2024-02-21T13:44:57.313Z,3.50
2024-02-21T13:47:30.770Z,2.90
2024-02-21T13:50:03.134Z,3.10
2024-02-21T13:52:35.386Z,2.90
2024-02-21T13:55:09.770Z,3.10
2024-02-21T13:57:42.027Z,3.20
2024-02-21T14:00:16.030Z,3.50
2024-02-21T14:02:48.289Z,3.50
2024-02-21T14:05:20.731Z,5.70
2024-02-21T14:07:55.766Z,5.20
2024-02-21T14:10:28.963Z,4.90
2024-02-21T14:13:01.700Z,4.40
2024-02-21T14:15:33.902Z,4.30
2024-02-21T14:18:10.461Z,3.80
2024-02-21T14:20:43.005Z,4.10
2024-02-21T14:23:17.511Z,4.80
2024-02-21T14:25:49.775Z,5.40
2024-02-21T14:28:22.313Z,5.10
2024-02-21T14:30:58.423Z,4.40
2024-02-21T14:33:32.065Z,4.80
2024-02-21T14:36:04.828Z,7.80
2024-02-21T14:38:37.126Z,5.90
2024-02-21T14:41:09.569Z,5.10
2024-02-21T14:43:41.982Z,6.80
2024-02-21T14:46:14.534Z,7.80
2024-02-21T14:48:47.032Z,9.10
2024-02-21T14:51:19.249Z,10.30
2024-02-21T14:53:51.434Z,9.30
2024-02-21T14:56:24.461Z,6.90
2024-02-21T14:59:00.506Z,10.20
2024-02-21T15:01:40.612Z,10.10
2024-02-21T15:04:13.087Z,8.10
2024-02-21T15:06:46.453Z,7.40
2024-02-21T15:09:20.709Z,7.70
2024-02-21T15:11:53.096Z,7.30
2024-02-21T15:14:26.156Z,7.20
2024-02-21T15:16:58.623Z,9.10
2024-02-21T15:19:31.018Z,10.40
2024-02-21T15:22:04.046Z,13.40
2024-02-21T15:24:39.725Z,15.80
2024-02-21T15:27:12.089Z,16.60
2024-02-21T15:29:44.407Z,18.60
2024-02-21T15:32:17.251Z,18.10
2024-02-21T15:34:49.577Z,14.00
2024-02-21T15:37:21.865Z,11.50
2024-02-21T15:39:54.080Z,9.10
2024-02-21T15:42:26.603Z,11.80
2024-02-21T15:44:59.304Z,14.30
2024-02-21T15:47:31.836Z,19.50
2024-02-21T15:50:05.330Z,18.10
2024-02-21T15:52:37.761Z,32.90
2024-02-21T15:55:13.667Z,44.10
2024-02-21T15:57:45.917Z,35.90
2024-02-21T16:00:19.618Z,26.60
2024-02-21T16:02:51.832Z,30.50
2024-02-21T16:05:27.069Z,34.70
2024-02-21T16:07:59.493Z,36.10
2024-02-21T16:10:32.690Z,31.50
2024-02-21T16:13:05.067Z,22.00
2024-02-21T16:15:37.780Z,20.70
2024-02-21T16:18:10.365Z,17.70
2024-02-21T16:20:42.589Z,16.60
2024-02-21T16:23:15.568Z,18.60
2024-02-21T16:25:49.661Z,21.10
2024-02-21T16:28:27.959Z,23.00
2024-02-21T16:31:00.544Z,24.30
2024-02-21T16:33:41.436Z,26.50
2024-02-21T16:36:33.937Z,23.20
2024-02-21T16:39:16.516Z,22.00
2024-02-21T16:41:54.808Z,23.40
2024-02-21T16:44:41.979Z,21.80
2024-02-21T16:47:26.097Z,21.70
2024-02-21T16:50:17.829Z,25.00
2024-02-21T16:53:04.872Z,30.90
2024-02-21T16:55:47.574Z,29.70
2024-02-21T16:58:37.703Z,32.80
2024-02-21T17:01:14.056Z,35.20
2024-02-21T17:03:50.348Z,38.70
2024-02-21T17:06:23.168Z,44.40
2024-02-21T17:08:58.340Z,46.60
2024-02-21T17:11:30.670Z,52.60
2024-02-21T17:14:04.438Z,48.90
2024-02-21T17:16:36.846Z,49.40
2024-02-21T17:19:13.057Z,47.90
2024-02-21T17:21:45.446Z,47.30
2024-02-21T17:24:17.644Z,43.40
2024-02-21T17:26:49.940Z,43.40
2024-02-21T17:29:25.413Z,42.30
2024-02-21T17:32:09.284Z,44.80
2024-02-21T17:34:42.118Z,45.40
2024-02-21T17:37:14.628Z,43.00
2024-02-21T17:39:46.914Z,38.40
2024-02-21T17:42:19.337Z,34.80
2024-02-21T17:44:51.764Z,41.90
2024-02-21T17:47:24.977Z,49.20
2024-02-21T17:49:57.379Z,50.70
2024-02-21T17:52:30.760Z,49.40
2024-02-21T17:55:05.898Z,46.80
2024-02-21T17:57:38.154Z,36.70
2024-02-21T18:00:16.853Z,33.40
2024-02-21T18:02:49.656Z,33.00
2024-02-21T18:05:25.064Z,32.60
2024-02-21T18:07:57.374Z,34.00
2024-02-21T18:10:32.578Z,36.20
2024-02-21T18:15:39.449Z,33.10
2024-02-21T18:18:12.027Z,37.00
2024-02-21T18:20:44.707Z,43.60
2024-02-21T18:23:29.479Z,36.40
2024-02-21T18:26:21.926Z,30.30
2024-02-21T18:28:54.525Z,29.40
2024-02-21T18:31:28.727Z,29.90
2024-02-21T18:34:11.372Z,29.20
2024-02-21T18:36:43.687Z,29.50
2024-02-21T18:39:36.177Z,29.10
2024-02-21T18:42:28.815Z,27.10
2024-02-21T18:45:04.080Z,24.60
2024-02-21T18:47:36.690Z,20.40
2024-02-21T18:50:13.434Z,23.90
2024-02-21T18:52:46.095Z,20.30
2024-02-21T18:55:18.489Z,15.30
2024-02-21T18:57:50.703Z,16.40
2024-02-21T19:00:25.554Z,16.20
2024-02-21T19:03:05.421Z,15.80
2024-02-21T19:05:38.080Z,15.00
2024-02-21T19:08:10.580Z,16.30
2024-02-21T19:10:43.021Z,17.70
2024-02-21T19:13:15.376Z,16.80
2024-02-21T19:15:47.941Z,15.80
2024-02-21T19:18:21.607Z,18.60
2024-02-21T19:20:54.058Z,21.80
2024-02-21T19:23:26.311Z,19.50
2024-02-21T19:25:58.736Z,16.10
2024-02-21T19:28:31.086Z,12.80
2024-02-21T19:31:04.367Z,10.80
2024-02-21T19:33:38.136Z,9.90
2024-02-21T19:36:11.537Z,10.70
2024-02-21T19:38:43.888Z,12.70
2024-02-21T19:41:17.178Z,13.00
2024-02-21T19:43:49.609Z,11.40
2024-02-21T19:46:29.819Z,12.00
2024-02-21T19:49:02.509Z,11.40
2024-02-21T19:51:34.945Z,11.30
2024-02-21T19:54:18.785Z,10.20
2024-02-21T19:56:56.917Z,9.40
2024-02-21T19:59:29.218Z,9.30
2024-02-21T20:02:01.584Z,8.70
2024-02-21T20:04:34.216Z,7.50
2024-02-21T20:07:07.556Z,6.90
2024-02-21T20:09:42.531Z,6.80
2024-02-21T20:12:16.510Z,6.70
2024-02-21T20:14:48.684Z,7.30
2024-02-21T20:17:21.146Z,6.20
2024-02-21T20:19:53.464Z,6.50
2024-02-21T20:22:25.948Z,6.00
2024-02-21T20:24:58.172Z,5.90
2024-02-21T20:27:30.497Z,6.00
2024-02-21T20:30:03.245Z,5.60
2024-02-21T20:32:35.603Z,5.50
2024-02-21T20:35:11.970Z,5.80
2024-02-21T20:37:44.931Z,5.40
2024-02-21T20:40:18.123Z,5.40
2024-02-21T20:42:50.438Z,5.50
2024-02-21T20:45:22.816Z,5.70
2024-02-21T20:47:55.499Z,5.20
2024-02-21T20:50:29.151Z,5.20
2024-02-21T20:53:03.011Z,5.10
2024-02-21T20:55:35.311Z,5.40
2024-02-21T20:58:07.822Z,5.50
2024-02-21T21:00:40.133Z,5.10
2024-02-21T21:03:12.549Z,4.70
2024-02-21T21:05:48.000Z,5.20
2024-02-21T21:08:20.359Z,5.80
2024-02-21T21:10:52.681Z,5.70
2024-02-21T21:13:30.924Z,5.70
2024-02-21T21:16:08.845Z,5.60
2024-02-21T21:18:41.370Z,6.20
2024-02-21T21:21:14.362Z,5.90
2024-02-21T21:23:46.569Z,6.90
2024-02-21T21:26:19.031Z,6.70
2024-02-21T21:28:51.329Z,6.40
2024-02-21T21:31:23.623Z,5.90
2024-02-21T21:33:55.900Z,6.10
2024-02-21T21:36:29.586Z,6.30
2024-02-21T21:39:01.739Z,7.00
2024-02-21T21:41:34.035Z,7.10
2024-02-21T21:44:06.392Z,7.10
2024-02-21T21:46:40.618Z,7.90
2024-02-21T21:49:12.935Z,7.60
2024-02-21T21:51:46.092Z,8.00
2024-02-21T21:54:18.337Z,7.10
2024-02-21T21:56:50.957Z,7.30
2024-02-21T21:59:23.222Z,8.40
2024-02-21T22:01:56.329Z,7.80
2024-02-21T22:04:32.208Z,8.50
2024-02-21T22:07:04.555Z,7.90
2024-02-21T22:09:37.093Z,7.90
2024-02-21T22:12:09.811Z,8.60
2024-02-21T22:14:42.074Z,8.50
2024-02-21T22:17:16.746Z,9.00
2024-02-21T22:19:50.906Z,9.20
2024-02-21T22:22:23.216Z,9.00
2024-02-21T22:24:55.624Z,8.30
2024-02-21T22:27:28.553Z,8.40
2024-02-21T22:30:00.719Z,9.10
2024-02-21T22:32:33.013Z,8.80
2024-02-21T22:35:06.080Z,8.80
2024-02-21T22:37:38.690Z,8.60
2024-02-21T22:40:14.047Z,9.10
2024-02-21T22:42:46.308Z,9.50
2024-02-21T22:45:20.123Z,9.30
2024-02-21T22:47:52.304Z,9.60
2024-02-21T22:50:24.482Z,9.50
2024-02-21T22:52:56.653Z,9.70
2024-02-21T22:55:29.723Z,9.30
2024-02-21T22:58:02.001Z,8.90
2024-02-21T23:00:36.380Z,9.60
2024-02-21T23:03:12.027Z,9.30
2024-02-21T23:05:44.667Z,9.90
2024-02-21T23:08:17.047Z,9.90
2024-02-21T23:10:49.386Z,10.20
2024-02-21T23:13:30.912Z,10.10
2024-02-21T23:16:03.259Z,9.90
2024-02-21T23:18:36.363Z,10.10
2024-02-21T23:21:13.568Z,10.70
2024-02-21T23:23:46.061Z,10.30
2024-02-21T23:26:18.393Z,10.60
2024-02-21T23:28:50.628Z,10.10
2024-02-21T23:31:23.911Z,10.70
2024-02-21T23:33:56.402Z,11.00
2024-02-21T23:36:31.969Z,12.10
2024-02-21T23:39:04.371Z,12.20
2024-02-21T23:41:36.860Z,12.90
2024-02-21T23:44:09.232Z,13.80
2024-02-21T23:46:42.106Z,12.00
2024-02-21T23:49:16.184Z,13.70
2024-02-21T23:51:50.387Z,14.40
2024-02-21T23:54:22.709Z,12.80
2024-02-21T23:56:55.000Z,12.80
2024-02-21T23:59:27.131Z,15.10
